createdAt,value
2023-05-01T00:00:09.335Z,100767.18
2023-05-01T00:02:57.398Z,100762.69
2023-05-01T00:05:25.539Z,100760.84
2023-05-01T00:07:53.507Z,100757.51
2023-05-01T00:10:23.570Z,100758.11
2023-05-01T00:12:51.396Z,100754.98
2023-05-01T00:15:19.131Z,100752.20
2023-05-01T00:17:47.110Z,100747.43
2023-05-01T00:20:14.913Z,100745.71
2023-05-01T00:22:42.747Z,100747.75
2023-05-01T00:25:10.888Z,100748.66
2023-05-01T00:27:38.879Z,100748.48
2023-05-01T00:30:08.139Z,100741.84
2023-05-01T00:32:35.922Z,100745.23
2023-05-01T00:35:03.816Z,100747.80
2023-05-01T00:37:31.582Z,100743.41
2023-05-01T00:39:59.711Z,100740.66
2023-05-01T00:42:27.693Z,100742.22
2023-05-01T00:44:56.024Z,100741.57
2023-05-01T00:47:23.830Z,100739.01
2023-05-01T00:49:52.908Z,100736.67
2023-05-01T00:52:20.743Z,100733.46
2023-05-01T00:54:52.065Z,100732.70
2023-05-01T00:57:20.756Z,100727.46
2023-05-01T00:59:48.796Z,100727.27
2023-05-01T01:02:16.544Z,100726.37
2023-05-01T01:04:46.373Z,100722.54
2023-05-01T01:07:47.724Z,100722.38
2023-05-01T01:10:41.464Z,100718.48
2023-05-01T01:13:26.681Z,100720.07
2023-05-01T01:16:10.314Z,100716.27
2023-05-01T01:18:53.587Z,100719.81
2023-05-01T01:21:24.423Z,100713.05
2023-05-01T01:24:23.598Z,100713.17
2023-05-01T01:26:57.167Z,100705.95
2023-05-01T01:29:34.166Z,100707.17
2023-05-01T01:32:17.124Z,100708.84
2023-05-01T01:34:48.571Z,100706.36
2023-05-01T01:37:29.684Z,100703.53
2023-05-01T01:40:07.578Z,100709.04
2023-05-01T01:42:43.329Z,100706.79
2023-05-01T01:45:20.022Z,100703.19
2023-05-01T01:47:48.456Z,100700.65
2023-05-01T01:50:17.597Z,100704.01
2023-05-01T01:52:47.929Z,100702.20
2023-05-01T01:55:17.126Z,100699.45
2023-05-01T01:57:45.488Z,100698.08
2023-05-01T02:00:14.156Z,100703.98
2023-05-01T02:02:44.418Z,100706.45
2023-05-01T02:05:15.080Z,100701.55
2023-05-01T02:07:46.346Z,100702.64
2023-05-01T02:10:16.153Z,100702.98
2023-05-01T02:12:46.480Z,100700.63
2023-05-01T02:15:17.237Z,100695.89
2023-05-01T02:17:45.806Z,100697.31
2023-05-01T02:20:13.794Z,100696.79
2023-05-01T02:22:42.446Z,100694.70
2023-05-01T02:25:11.980Z,100690.00
2023-05-01T02:27:50.363Z,100689.80
2023-05-01T02:30:18.857Z,100689.02
2023-05-01T02:32:46.685Z,100689.91
2023-05-01T02:35:14.490Z,100685.73
2023-05-01T02:37:42.933Z,100687.17
2023-05-01T02:40:12.546Z,100682.70
2023-05-01T02:42:42.408Z,100679.98
2023-05-01T02:45:13.169Z,100676.16
2023-05-01T02:47:41.485Z,100675.27
2023-05-01T02:50:10.224Z,100671.13
2023-05-01T02:52:38.478Z,100670.34
2023-05-01T02:55:27.195Z,100668.92
2023-05-01T02:57:59.300Z,100671.30
2023-05-01T03:00:27.814Z,100666.73
2023-05-01T03:02:55.654Z,100667.74
2023-05-01T03:05:23.545Z,100668.02
2023-05-01T03:07:51.400Z,100669.52
2023-05-01T03:10:19.275Z,100668.85
2023-05-01T03:12:47.100Z,100665.63
2023-05-01T03:15:14.933Z,100661.77
2023-05-01T03:17:43.349Z,100664.86
2023-05-01T03:20:11.786Z,100668.79
2023-05-01T03:22:39.785Z,100665.17
2023-05-01T03:25:09.365Z,100663.23
2023-05-01T03:27:37.436Z,100663.95
2023-05-01T03:30:06.072Z,100660.58
2023-05-01T03:32:34.894Z,100661.98
2023-05-01T03:35:02.936Z,100656.98
2023-05-01T03:37:30.702Z,100657.02
2023-05-01T03:39:58.655Z,100657.42
2023-05-01T03:42:45.521Z,100654.73
2023-05-01T03:45:19.623Z,100651.64
2023-05-01T03:47:47.596Z,100652.25
2023-05-01T03:50:16.409Z,100648.71
2023-05-01T03:52:45.020Z,100645.56
2023-05-01T03:55:12.893Z,100649.20
2023-05-01T03:57:47.108Z,100645.86
2023-05-01T04:00:15.224Z,100643.08
2023-05-01T04:02:47.579Z,100643.83
2023-05-01T04:05:19.272Z,100640.79
2023-05-01T04:07:51.033Z,100637.20
2023-05-01T04:10:18.928Z,100640.91
2023-05-01T04:12:55.208Z,100640.67
2023-05-01T04:15:23.038Z,100639.66
2023-05-01T04:17:51.246Z,100640.48
2023-05-01T04:20:19.562Z,100638.63
2023-05-01T04:22:47.869Z,100636.40
2023-05-01T04:25:15.821Z,100631.48
2023-05-01T04:27:44.095Z,100635.67
2023-05-01T04:30:12.212Z,100632.33
2023-05-01T04:32:40.673Z,100633.88
2023-05-01T04:35:09.650Z,100632.16
2023-05-01T04:37:38.308Z,100631.91
2023-05-01T04:40:08.097Z,100631.32
2023-05-01T04:42:37.048Z,100627.52
2023-05-01T04:45:05.426Z,100633.72
2023-05-01T04:47:35.831Z,100639.64
2023-05-01T04:50:04.369Z,100642.28
2023-05-01T04:52:32.651Z,100646.08
2023-05-01T04:55:03.747Z,100641.55
2023-05-01T04:57:32.584Z,100643.91
2023-05-01T05:00:01.278Z,100648.13
2023-05-01T05:02:31.843Z,100639.95
2023-05-01T05:04:59.740Z,100642.56
2023-05-01T05:07:27.518Z,100645.35
2023-05-01T05:10:21.908Z,100643.90
2023-05-01T05:12:59.606Z,100643.17
2023-05-01T05:15:27.651Z,100638.35
2023-05-01T05:17:56.594Z,100635.08
2023-05-01T05:20:26.097Z,100634.63
2023-05-01T05:22:53.976Z,100632.90
2023-05-01T05:25:24.477Z,100632.29
2023-05-01T05:27:53.190Z,100633.54
2023-05-01T05:30:21.312Z,100628.23
2023-05-01T05:32:49.661Z,100627.86
2023-05-01T05:35:17.616Z,100630.11
2023-05-01T05:37:46.265Z,100627.07
2023-05-01T05:40:14.641Z,100627.19
2023-05-01T05:42:53.513Z,100624.70
2023-05-01T05:45:21.280Z,100623.02
2023-05-01T05:47:49.386Z,100621.78
2023-05-01T05:50:17.421Z,100626.30
2023-05-01T05:52:46.117Z,100622.86
2023-05-01T05:55:14.146Z,100622.02
2023-05-01T05:57:43.787Z,100618.90
2023-05-01T06:00:12.730Z,100618.55
2023-05-01T06:02:44.676Z,100617.46
2023-05-01T06:05:13.465Z,100619.77
2023-05-01T06:07:41.328Z,100620.09
2023-05-01T06:10:09.789Z,100620.78
2023-05-01T06:12:39.298Z,100619.83
2023-05-01T06:15:17.001Z,100614.62
2023-05-01T06:17:48.894Z,100613.45
2023-05-01T06:20:16.909Z,100606.59
2023-05-01T06:22:45.246Z,100606.63
2023-05-01T06:25:17.695Z,100610.27
2023-05-01T06:27:45.852Z,100604.78
2023-05-01T06:30:13.747Z,100603.23
2023-05-01T06:32:45.768Z,100601.20
2023-05-01T06:35:14.484Z,100605.14
2023-05-01T06:37:42.217Z,100599.40
2023-05-01T06:40:11.624Z,100601.36
2023-05-01T06:42:40.251Z,100596.02
2023-05-01T06:45:08.431Z,100590.69
2023-05-01T06:47:36.456Z,100588.77
2023-05-01T06:50:05.663Z,100588.20
2023-05-01T06:52:34.424Z,100595.23
2023-05-01T06:55:02.208Z,100597.94
2023-05-01T06:57:31.173Z,100593.52
2023-05-01T06:59:59.222Z,100597.64
2023-05-01T07:02:27.385Z,100596.55
2023-05-01T07:04:55.525Z,100591.09
2023-05-01T07:07:23.650Z,100589.14
2023-05-01T07:09:51.606Z,100582.00
2023-05-01T07:12:19.411Z,100584.46
2023-05-01T07:14:47.445Z,100583.71
2023-05-01T07:17:15.831Z,100584.35
2023-05-01T07:19:43.511Z,100583.87
2023-05-01T07:22:11.215Z,100586.14
2023-05-01T07:24:38.978Z,100581.41
2023-05-01T07:27:06.709Z,100581.77
2023-05-01T07:29:37.470Z,100575.95
2023-05-01T07:32:07.159Z,100569.81
2023-05-01T07:34:35.008Z,100569.30
2023-05-01T07:37:04.787Z,100569.58
2023-05-01T07:39:32.618Z,100566.02
2023-05-01T07:42:00.599Z,100567.68
2023-05-01T07:44:28.396Z,100569.70
2023-05-01T07:46:56.161Z,100571.52
2023-05-01T07:49:24.495Z,100564.81
2023-05-01T07:51:52.550Z,100561.21
2023-05-01T07:54:22.162Z,100561.96
2023-05-01T07:56:50.070Z,100555.13
2023-05-01T07:59:17.811Z,100553.21
2023-05-01T13:02:36.460Z,100204.19
2023-05-01T13:05:11.126Z,100197.73
2023-05-01T13:07:41.701Z,100194.94
2023-05-01T13:10:10.598Z,100190.98
2023-05-01T13:12:44.727Z,100184.43
2023-05-01T13:15:22.235Z,100184.32
2023-05-01T13:17:50.154Z,100189.11
2023-05-01T13:20:26.802Z,100183.49
2023-05-01T13:22:54.720Z,100175.35
2023-05-01T13:25:23.379Z,100170.49
2023-05-01T13:27:54.113Z,100168.38
2023-05-01T13:30:33.318Z,100166.91
2023-05-01T13:33:02.034Z,100164.59
2023-05-01T13:35:30.683Z,100157.66
2023-05-01T13:37:58.454Z,100151.97
2023-05-01T13:40:26.521Z,100149.95
2023-05-01T13:42:54.334Z,100146.02
2023-05-01T13:45:22.257Z,100135.20
2023-05-01T13:47:51.914Z,100134.90
2023-05-01T13:50:19.777Z,100127.81
2023-05-01T13:52:48.430Z,100127.09
2023-05-01T13:55:17.619Z,100124.26
2023-05-01T13:57:45.480Z,100127.38
2023-05-01T14:00:17.817Z,100119.95
2023-05-01T14:02:50.157Z,100114.21
2023-05-01T14:05:23.605Z,100112.50
2023-05-01T14:07:55.335Z,100110.71
2023-05-01T14:10:28.032Z,100110.63
2023-05-01T14:12:59.744Z,100106.41
2023-05-01T14:15:28.746Z,100101.09
2023-05-01T14:17:56.675Z,100099.05
2023-05-01T14:20:25.366Z,100096.16
2023-05-01T14:22:53.641Z,100097.15
2023-05-01T14:25:30.608Z,100094.92
2023-05-01T14:28:00.493Z,100087.41
2023-05-01T14:30:37.586Z,100081.96
2023-05-01T14:33:09.637Z,100076.85
2023-05-01T14:35:48.814Z,100068.69
2023-05-01T14:38:18.780Z,100067.95
2023-05-01T14:40:46.883Z,100067.02
2023-05-01T14:43:20.124Z,100061.30
2023-05-01T14:45:49.929Z,100060.52
2023-05-01T14:48:30.519Z,100058.95
2023-05-01T14:50:59.487Z,100048.39
2023-05-01T14:53:32.318Z,100049.52
2023-05-01T14:56:00.116Z,100044.71
2023-05-01T14:58:28.236Z,100042.13
2023-05-01T15:00:57.453Z,100040.25
2023-05-01T15:03:25.517Z,100039.19
2023-05-01T15:05:53.326Z,100037.89
2023-05-01T15:08:21.581Z,100037.94
2023-05-01T15:10:49.337Z,100034.91
2023-05-01T15:13:17.080Z,100031.25
2023-05-01T15:15:44.812Z,100021.34
2023-05-01T15:18:12.603Z,100018.73
2023-05-01T15:20:40.989Z,100020.77
2023-05-01T15:23:10.646Z,100016.69
2023-05-01T15:25:38.476Z,100015.30
2023-05-01T15:28:06.202Z,100012.97
2023-05-01T15:30:33.997Z,100013.77
2023-05-01T15:33:01.818Z,100008.98
2023-05-01T15:35:30.191Z,100007.14
2023-05-01T15:37:58.112Z,100000.02
2023-05-01T15:40:26.206Z,100000.52
2023-05-01T15:42:54.416Z,99997.70
2023-05-01T15:45:22.234Z,99993.81
2023-05-01T15:47:50.069Z,99985.46
2023-05-01T15:50:17.845Z,99982.26
2023-05-01T15:52:46.127Z,99985.21
2023-05-01T15:55:13.934Z,99976.52
2023-05-01T15:57:45.610Z,99975.44
2023-05-01T16:00:14.629Z,99981.11
2023-05-01T16:02:44.623Z,99979.40
2023-05-01T16:05:15.158Z,99977.51
2023-05-01T16:07:43.791Z,99975.17
2023-05-01T16:10:11.913Z,99975.12
2023-05-01T16:12:39.678Z,99973.30
2023-05-01T16:15:08.836Z,99973.20
2023-05-01T16:17:43.749Z,99972.10
2023-05-01T16:20:13.156Z,99970.13
2023-05-01T16:22:41.880Z,99964.80
2023-05-01T16:25:10.609Z,99964.52
2023-05-01T16:27:45.914Z,99962.88
2023-05-01T16:30:17.080Z,99957.58
2023-05-01T16:32:46.300Z,99958.86
2023-05-01T16:35:18.370Z,99959.05
2023-05-01T16:37:46.236Z,99952.83
2023-05-01T16:40:18.043Z,99953.70
2023-05-01T16:42:53.393Z,99960.75
2023-05-01T16:45:21.705Z,99958.07
2023-05-01T16:47:49.832Z,99956.85
2023-05-01T16:50:18.295Z,99957.02
2023-05-01T16:52:46.029Z,99956.39
2023-05-01T16:55:13.830Z,99952.83
2023-05-01T16:57:44.278Z,99950.55
2023-05-01T17:00:14.110Z,99947.79
2023-05-01T17:02:42.128Z,99948.91
2023-05-01T17:05:09.969Z,99949.12
2023-05-01T17:07:37.759Z,99950.59
2023-05-01T17:10:06.482Z,99946.89
2023-05-01T17:12:34.367Z,99944.92
2023-05-01T17:15:02.599Z,99944.86
2023-05-01T17:17:30.952Z,99939.50
2023-05-01T17:19:59.181Z,99939.07
2023-05-01T17:22:29.061Z,99936.38
2023-05-01T17:24:57.703Z,99934.38
2023-05-01T17:27:25.457Z,99934.38
2023-05-01T17:29:53.167Z,99933.78
2023-05-01T17:32:35.847Z,99931.10
2023-05-01T17:35:05.131Z,99937.99
2023-05-01T17:37:33.257Z,99933.59
2023-05-01T17:40:01.862Z,99936.63
2023-05-01T17:42:30.019Z,99932.33
2023-05-01T17:44:57.874Z,99932.02
2023-05-01T17:47:26.361Z,99929.69
2023-05-01T17:49:54.273Z,99928.86
2023-05-01T17:52:22.236Z,99924.95
2023-05-01T17:54:49.931Z,99928.45
2023-05-01T17:57:17.662Z,99925.16
2023-05-01T17:59:45.909Z,99928.59
2023-05-01T18:02:13.778Z,99930.30
2023-05-01T18:04:41.576Z,99931.23
2023-05-01T18:07:09.531Z,99931.02
2023-05-01T18:09:37.217Z,99933.70
2023-05-01T18:12:05.711Z,99937.86
2023-05-01T18:14:33.538Z,99935.91
2023-05-01T18:17:01.364Z,99933.38
2023-05-01T18:19:29.402Z,99936.73
2023-05-01T18:21:57.562Z,99936.23
2023-05-01T18:24:25.276Z,99937.21
2023-05-01T18:26:53.090Z,99936.10
2023-05-01T18:29:22.821Z,99932.52
2023-05-01T18:31:51.121Z,99935.73
2023-05-01T18:34:19.702Z,99938.88
2023-05-01T18:36:52.003Z,99940.41
2023-05-01T18:39:23.116Z,99941.33
2023-05-01T18:41:51.306Z,99942.13
2023-05-01T18:44:19.222Z,99938.23
2023-05-01T18:46:46.995Z,99940.95
2023-05-01T18:49:14.875Z,99943.60
2023-05-01T18:51:42.745Z,99939.65
2023-05-01T18:54:10.663Z,99942.36
2023-05-01T18:56:38.403Z,99945.23
2023-05-01T18:59:07.504Z,99947.03
2023-05-01T19:01:36.344Z,99948.10
2023-05-01T19:04:04.440Z,99951.14
2023-05-01T19:06:32.703Z,99949.35
2023-05-01T19:09:00.976Z,99949.35
2023-05-01T19:11:31.748Z,99950.19
2023-05-01T19:13:59.619Z,99951.95
2023-05-01T19:16:27.372Z,99952.58
2023-05-01T19:18:55.117Z,99949.91
2023-05-01T19:21:23.266Z,99953.77
2023-05-01T19:23:51.096Z,99947.40
2023-05-01T19:26:18.903Z,99947.91
2023-05-01T19:28:46.955Z,99950.73
2023-05-01T19:31:19.025Z,99953.34
2023-05-01T19:33:50.751Z,99954.58
2023-05-01T19:36:18.607Z,99957.56
2023-05-01T19:38:46.661Z,99952.93
2023-05-01T19:41:14.613Z,99953.48
2023-05-01T19:43:43.629Z,99954.69
2023-05-01T19:46:15.300Z,99956.59
2023-05-01T19:48:52.631Z,99955.20
2023-05-01T19:51:23.162Z,99953.36
2023-05-01T19:53:53.889Z,99950.83
2023-05-01T19:56:21.769Z,99955.09
2023-05-01T19:58:49.618Z,99954.94
2023-05-01T20:01:17.642Z,99955.15
2023-05-01T20:03:45.763Z,99951.29
2023-05-01T20:06:14.554Z,99953.65
2023-05-01T20:08:42.836Z,99949.90
2023-05-01T20:11:10.988Z,99950.27
2023-05-01T20:13:38.761Z,99950.88
2023-05-01T20:16:06.867Z,99947.80
2023-05-01T20:18:34.835Z,99952.06
2023-05-01T20:21:02.923Z,99946.79
2023-05-01T20:23:31.007Z,99950.02
2023-05-01T20:25:59.927Z,99951.05
2023-05-01T20:28:28.552Z,99949.12
2023-05-01T20:30:56.727Z,99948.67
2023-05-01T20:33:24.812Z,99950.73
2023-05-01T20:35:53.095Z,99952.20
2023-05-01T20:38:21.964Z,99951.21
2023-05-01T20:40:50.014Z,99951.81
2023-05-01T20:43:17.786Z,99957.12
2023-05-01T20:45:45.523Z,99955.27
2023-05-01T20:48:13.402Z,99954.73
2023-05-01T20:50:48.886Z,99949.78
2023-05-01T20:53:16.872Z,99952.27
2023-05-01T20:55:44.746Z,99946.83
2023-05-01T20:58:12.604Z,99948.11
2023-05-01T21:00:40.403Z,99945.41
2023-05-01T21:03:09.401Z,99945.75
2023-05-01T21:05:37.250Z,99944.27
2023-05-01T21:08:05.098Z,99941.80
2023-05-01T21:10:32.878Z,99942.00
2023-05-01T21:13:00.899Z,99939.92
2023-05-01T21:15:31.161Z,99940.48
2023-05-01T21:17:58.893Z,99940.89
2023-05-01T21:20:31.530Z,99942.92
2023-05-01T21:23:00.829Z,99939.20
2023-05-01T21:25:30.035Z,99940.74
2023-05-01T21:28:02.028Z,99941.14
2023-05-01T21:30:34.748Z,99941.07
2023-05-01T21:33:07.998Z,99941.00
2023-05-01T21:35:36.025Z,99941.78
2023-05-01T21:38:04.611Z,99941.69
2023-05-01T21:40:40.151Z,99944.08
2023-05-01T21:43:08.746Z,99945.48
2023-05-01T21:45:40.573Z,99941.19
2023-05-01T21:48:09.447Z,99941.13
2023-05-01T21:50:40.116Z,99943.66
2023-05-01T21:53:08.329Z,99945.37
2023-05-01T21:55:36.128Z,99940.36
2023-05-01T21:58:04.124Z,99942.54
2023-05-01T22:00:33.018Z,99940.95
2023-05-01T22:03:05.773Z,99942.61
2023-05-01T22:05:34.495Z,99944.84
2023-05-01T22:08:02.225Z,99947.55
2023-05-01T22:10:29.961Z,99948.39
2023-05-01T22:12:57.726Z,99947.50
2023-05-01T22:15:25.773Z,99949.24
2023-05-01T22:17:53.626Z,99951.48
2023-05-01T22:20:21.384Z,99946.45
2023-05-01T22:22:49.603Z,99945.20
2023-05-01T22:25:17.458Z,99942.63
2023-05-01T22:27:45.438Z,99942.09
2023-05-01T22:30:13.372Z,99939.14
2023-05-01T22:32:41.264Z,99938.34
2023-05-01T22:35:09.257Z,99938.06
2023-05-01T22:37:37.006Z,99939.94
2023-05-01T22:40:05.734Z,99937.30
2023-05-01T22:42:33.433Z,99937.19
2023-05-01T22:45:01.152Z,99937.36
2023-05-01T22:47:29.026Z,99938.73
2023-05-01T22:49:57.058Z,99938.48
2023-05-01T22:52:25.154Z,99938.34
2023-05-01T22:54:53.095Z,99938.81
2023-05-01T22:57:20.921Z,99936.98
2023-05-01T22:59:48.895Z,99936.09
2023-05-01T23:02:17.608Z,99939.67
2023-05-01T23:04:45.848Z,99938.55
2023-05-01T23:07:13.781Z,99934.93
2023-05-01T23:09:41.861Z,99934.96
2023-05-01T23:12:17.701Z,99935.77
2023-05-01T23:14:46.356Z,99936.20
2023-05-01T23:17:14.985Z,99934.23
2023-05-01T23:19:43.772Z,99933.35
2023-05-01T23:22:14.645Z,99934.06
2023-05-01T23:24:44.748Z,99934.13
2023-05-01T23:27:16.943Z,99930.30
2023-05-01T23:29:57.339Z,99927.61
2023-05-01T23:32:30.721Z,99926.63
2023-05-01T23:35:16.176Z,99925.31
2023-05-01T23:37:44.020Z,99924.09
2023-05-01T23:40:12.065Z,99920.05
2023-05-01T23:42:39.842Z,99916.58
2023-05-01T23:45:09.745Z,99912.89
2023-05-01T23:47:38.708Z,99910.55
2023-05-01T23:50:07.278Z,99911.05
2023-05-01T23:52:35.369Z,99910.44
2023-05-01T23:55:03.202Z,99911.39
2023-05-01T23:57:30.939Z,99911.05
2023-05-01T23:59:58.829Z,99908.77
